createdAt,value
2022-12-14T00:00:06.876Z,9.18
2022-12-14T00:02:33.525Z,7.22
2022-12-14T00:05:00.085Z,10.68
2022-12-14T00:07:29.672Z,12.98
2022-12-14T00:09:56.204Z,9.93
2022-12-14T00:12:22.705Z,11.18
2022-12-14T00:14:49.348Z,5.90
2022-12-14T00:17:15.860Z,9.07
2022-12-14T00:19:42.363Z,4.50
2022-12-14T00:22:08.848Z,13.48
2022-12-14T00:24:36.030Z,6.78
2022-12-14T00:27:02.519Z,9.02
2022-12-14T00:29:29.166Z,5.80
2022-12-14T00:31:55.636Z,4.97
2022-12-14T00:34:22.210Z,6.78
2022-12-14T00:36:48.700Z,11.50
2022-12-14T00:39:15.272Z,10.82
2022-12-14T00:41:41.818Z,8.88
2022-12-14T00:44:08.249Z,10.93
2022-12-14T00:46:34.946Z,5.03
2022-12-14T00:49:01.485Z,7.43
2022-12-14T00:51:28.049Z,8.50
2022-12-14T00:53:54.523Z,14.25
2022-12-14T00:56:21.013Z,9.10
2022-12-14T00:58:51.842Z,7.55
2022-12-14T01:01:18.815Z,12.13
2022-12-14T01:03:45.577Z,7.43
2022-12-14T01:06:19.822Z,6.03
2022-12-14T01:08:46.831Z,7.43
2022-12-14T01:11:13.610Z,10.07
2022-12-14T01:13:41.307Z,8.40
2022-12-14T01:16:17.061Z,4.18
2022-12-14T01:18:44.046Z,11.63
2022-12-14T01:21:12.086Z,8.18
2022-12-14T01:23:38.950Z,6.18
2022-12-14T01:26:05.544Z,11.82
2022-12-14T01:28:32.009Z,9.48
2022-12-14T01:30:58.569Z,10.13
2022-12-14T01:33:25.360Z,6.60
2022-12-14T01:35:52.181Z,5.10
2022-12-14T01:38:18.632Z,7.18
2022-12-14T01:40:45.118Z,7.07
2022-12-14T01:43:15.347Z,7.80
2022-12-14T01:45:43.154Z,7.45
2022-12-14T01:48:14.046Z,3.70
2022-12-14T01:50:44.270Z,10.55
2022-12-14T01:53:17.723Z,6.25
2022-12-14T01:55:50.456Z,11.48
2022-12-14T01:58:20.129Z,4.38
2022-12-14T02:00:48.124Z,9.63
2022-12-14T02:03:22.626Z,12.63
2022-12-14T02:05:58.132Z,9.45
2022-12-14T02:08:25.745Z,8.88
2022-12-14T02:10:54.641Z,6.38
2022-12-14T02:13:29.463Z,4.90
2022-12-14T02:15:56.342Z,11.68
2022-12-14T02:18:25.529Z,8.73
2022-12-14T02:21:20.117Z,11.48
2022-12-14T02:24:03.295Z,8.43
2022-12-14T02:26:54.611Z,11.18
2022-12-14T02:29:45.960Z,6.95
2022-12-14T02:32:33.672Z,7.78
2022-12-14T02:35:19.565Z,5.95
2022-12-14T02:38:19.914Z,7.55
2022-12-14T02:40:49.349Z,6.30
2022-12-14T02:43:30.553Z,11.15
2022-12-14T02:46:06.580Z,7.53
2022-12-14T02:48:48.019Z,4.90
2022-12-14T02:51:40.507Z,8.27
2022-12-14T02:54:25.938Z,6.15
2022-12-14T02:57:01.562Z,7.75
2022-12-14T02:59:28.750Z,11.02
2022-12-14T03:01:56.409Z,8.35
2022-12-14T03:04:24.223Z,10.63
2022-12-14T03:06:57.855Z,10.63
2022-12-14T03:09:28.374Z,6.18
2022-12-14T03:12:01.161Z,12.77
2022-12-14T03:14:34.357Z,10.25
2022-12-14T03:19:49.109Z,5.57
2022-12-14T03:22:23.946Z,8.10
2022-12-14T03:24:55.564Z,6.30
2022-12-14T03:27:30.548Z,6.03
2022-12-14T03:30:05.745Z,6.93
2022-12-14T03:32:39.253Z,9.63
2022-12-14T03:35:18.137Z,6.18
2022-12-14T03:37:54.563Z,5.70
2022-12-14T03:40:27.986Z,5.85
2022-12-14T03:43:50.168Z,5.00
2022-12-14T03:46:32.308Z,5.05
2022-12-14T03:49:24.611Z,8.63
2022-12-14T03:51:56.893Z,7.57
2022-12-14T03:54:38.510Z,5.57
2022-12-14T03:57:25.820Z,10.10
2022-12-14T04:00:06.358Z,7.22
2022-12-14T04:02:40.860Z,7.25
2022-12-14T04:05:15.889Z,5.30
2022-12-14T04:08:03.603Z,4.65
2022-12-14T04:10:56.743Z,16.02
2022-12-14T04:13:48.954Z,7.57
2022-12-14T04:16:39.916Z,6.63
2022-12-14T04:19:12.498Z,6.65
2022-12-14T04:21:55.167Z,4.38
2022-12-14T04:24:53.950Z,5.60
2022-12-14T04:27:32.771Z,6.38
2022-12-14T04:30:01.733Z,3.50
2022-12-14T04:32:38.244Z,7.03
2022-12-14T04:35:23.007Z,9.35
2022-12-14T04:37:54.853Z,7.25
2022-12-14T04:40:33.779Z,7.22
2022-12-14T04:43:05.340Z,8.38
2022-12-14T04:45:37.151Z,5.38
2022-12-14T04:48:16.235Z,11.07
2022-12-14T04:50:49.002Z,8.70
2022-12-14T04:53:25.555Z,11.45
2022-12-14T04:56:08.794Z,8.30
2022-12-14T04:58:36.482Z,7.10
2022-12-14T05:01:40.688Z,3.40
2022-12-14T05:04:41.149Z,2.22
2022-12-14T05:07:34.535Z,8.27
2022-12-14T05:10:19.048Z,10.00
2022-12-14T05:13:08.394Z,6.97
2022-12-14T05:15:44.348Z,10.30
2022-12-14T05:18:11.268Z,16.98
2022-12-14T05:20:37.947Z,12.75
2022-12-14T05:23:04.566Z,16.85
2022-12-14T05:25:31.205Z,14.45
2022-12-14T05:27:57.715Z,17.85
2022-12-14T05:30:24.378Z,13.05
2022-12-14T05:32:51.088Z,18.35
2022-12-14T05:35:17.784Z,10.20
2022-12-14T05:37:44.459Z,8.32
2022-12-14T05:40:11.827Z,14.25
2022-12-14T05:42:44.399Z,10.98
2022-12-14T05:45:13.086Z,10.65
2022-12-14T05:47:40.304Z,4.30
2022-12-14T05:50:07.842Z,11.32
2022-12-14T05:52:34.770Z,9.70
2022-12-14T05:55:04.535Z,3.85
2022-12-14T05:57:31.942Z,4.93
2022-12-14T05:59:58.460Z,3.83
2022-12-14T06:02:26.408Z,3.33
2022-12-14T06:04:53.013Z,2.83
2022-12-14T06:07:24.495Z,4.90
2022-12-14T06:09:54.308Z,4.50
2022-12-14T06:12:21.110Z,3.13
2022-12-14T06:14:47.634Z,2.05
2022-12-14T06:17:14.154Z,3.20
2022-12-14T06:19:40.605Z,3.53
2022-12-14T06:22:07.066Z,1.70
2022-12-14T06:24:33.571Z,7.30
2022-12-14T06:27:00.014Z,3.38
2022-12-14T06:29:26.535Z,4.40
2022-12-14T06:31:52.998Z,2.88
2022-12-14T06:34:23.400Z,10.88
2022-12-14T06:36:51.473Z,5.47
2022-12-14T06:39:18.027Z,2.72
2022-12-14T06:41:49.614Z,6.55
2022-12-14T06:44:16.239Z,9.95
2022-12-14T06:46:42.838Z,6.80
2022-12-14T06:49:16.507Z,8.93
2022-12-14T06:51:43.847Z,3.35
2022-12-14T06:54:15.449Z,8.63
2022-12-14T06:56:44.320Z,3.63
2022-12-14T06:59:11.371Z,5.03
2022-12-14T07:01:39.022Z,9.32
2022-12-14T07:04:06.537Z,9.25
2022-12-14T07:06:36.684Z,3.72
2022-12-14T07:09:04.650Z,3.47
2022-12-14T07:11:31.632Z,4.97
2022-12-14T07:14:00.778Z,7.03
2022-12-14T07:16:31.397Z,4.45
2022-12-14T07:18:58.237Z,4.28
2022-12-14T07:21:25.992Z,2.90
2022-12-14T07:23:53.251Z,2.53
2022-12-14T07:26:25.784Z,4.47
2022-12-14T07:28:53.504Z,3.17
2022-12-14T07:31:25.487Z,5.35
2022-12-14T07:33:54.507Z,5.47
2022-12-14T07:36:22.386Z,9.75
2022-12-14T07:38:50.212Z,10.18
2022-12-14T07:41:25.944Z,2.58
2022-12-14T07:43:58.986Z,5.18
2022-12-14T07:46:27.924Z,5.88
2022-12-14T07:48:56.547Z,6.03
2022-12-14T07:51:28.793Z,4.57
2022-12-14T07:53:55.816Z,4.77
2022-12-14T07:56:28.757Z,3.80
2022-12-14T07:58:56.780Z,4.07
2022-12-14T08:01:26.522Z,6.63
2022-12-14T08:03:56.290Z,3.88
2022-12-14T08:06:25.179Z,4.82
2022-12-14T08:08:53.012Z,7.35
2022-12-14T08:11:22.271Z,4.70
2022-12-14T08:13:55.630Z,5.63
2022-12-14T08:16:23.104Z,5.82
2022-12-14T08:18:50.906Z,5.03
2022-12-14T08:21:20.936Z,8.20
2022-12-14T08:23:48.245Z,3.33
2022-12-14T08:26:15.314Z,4.75
2022-12-14T08:28:41.961Z,6.22
2022-12-14T08:31:14.183Z,4.60
2022-12-14T08:33:42.625Z,13.90
2022-12-14T08:36:12.425Z,6.72
2022-12-14T08:38:40.227Z,4.38
2022-12-14T08:41:08.823Z,5.90
2022-12-14T08:43:36.277Z,3.80
2022-12-14T08:46:03.653Z,6.20
2022-12-14T08:48:30.151Z,6.03
2022-12-14T08:51:05.039Z,3.03
2022-12-14T08:53:32.251Z,8.57
2022-12-14T08:55:59.319Z,4.80
2022-12-14T08:58:26.236Z,8.57
2022-12-14T09:01:03.313Z,4.95
2022-12-14T09:03:30.220Z,6.60
2022-12-14T09:05:57.083Z,8.82
2022-12-14T09:08:23.587Z,6.88
2022-12-14T09:10:51.744Z,4.57
2022-12-14T09:13:18.729Z,10.20
2022-12-14T09:15:45.280Z,7.10
2022-12-14T09:18:11.756Z,4.90
2022-12-14T09:20:38.287Z,5.15
2022-12-14T09:23:07.086Z,8.70
2022-12-14T09:25:33.587Z,10.82
2022-12-14T09:28:00.094Z,8.95
2022-12-14T09:30:27.247Z,7.47
2022-12-14T09:32:53.830Z,6.38
2022-12-14T09:35:20.385Z,6.25
2022-12-14T09:37:46.893Z,5.60
2022-12-14T09:40:14.069Z,9.73
2022-12-14T09:42:50.962Z,6.47
2022-12-14T09:45:25.126Z,8.07
2022-12-14T09:48:10.402Z,7.28
2022-12-14T09:50:38.934Z,7.80
2022-12-14T09:53:08.388Z,14.52
2022-12-14T09:55:37.990Z,7.63
2022-12-14T09:58:15.952Z,8.13
2022-12-14T10:00:53.781Z,5.88
2022-12-14T10:03:49.680Z,6.07
2022-12-14T10:06:51.785Z,6.65
2022-12-14T10:09:47.420Z,8.73
2022-12-14T10:12:34.112Z,7.80
2022-12-14T10:15:32.332Z,4.38
2022-12-14T10:18:49.415Z,6.10
2022-12-14T10:21:15.079Z,5.30
2022-12-14T10:23:53.799Z,6.07
2022-12-14T10:26:23.686Z,6.18
2022-12-14T10:29:12.986Z,5.38
2022-12-14T10:32:18.091Z,7.97
2022-12-14T10:34:44.680Z,11.05
2022-12-14T10:37:23.107Z,5.30
2022-12-14T10:40:31.080Z,8.13
2022-12-14T10:43:06.019Z,5.25
2022-12-14T10:45:51.211Z,7.32
2022-12-14T10:48:47.083Z,7.13
2022-12-14T10:51:22.593Z,5.30
2022-12-14T10:53:58.335Z,5.28
2022-12-14T10:56:30.484Z,3.97
2022-12-14T10:59:15.083Z,7.90
2022-12-14T11:01:42.440Z,7.68
2022-12-14T11:04:30.429Z,7.68
2022-12-14T11:07:07.326Z,10.95
2022-12-14T11:09:34.457Z,4.43
2022-12-14T11:12:13.764Z,4.90
2022-12-14T11:14:56.316Z,6.03
2022-12-14T11:17:36.067Z,7.32
2022-12-14T11:20:17.775Z,11.85
2022-12-14T11:22:51.157Z,6.70
2022-12-14T11:25:45.029Z,5.85
2022-12-14T11:28:34.346Z,8.20
2022-12-14T11:31:10.609Z,7.05
2022-12-14T11:33:50.260Z,3.53
2022-12-14T11:36:36.999Z,5.68
2022-12-14T11:39:22.079Z,5.88
2022-12-14T11:42:01.603Z,8.23
2022-12-14T11:44:33.402Z,5.15
2022-12-14T11:47:00.325Z,7.47
2022-12-14T11:49:39.036Z,6.40
2022-12-14T11:52:05.763Z,5.13
2022-12-14T11:54:33.598Z,5.93
2022-12-14T11:57:05.814Z,3.40
2022-12-14T11:59:39.400Z,7.18
2022-12-14T12:02:24.113Z,7.05
2022-12-14T12:04:59.565Z,5.45
2022-12-14T12:07:43.513Z,4.68
2022-12-14T12:10:12.930Z,4.03
2022-12-14T12:16:19.312Z,7.93
2022-12-14T12:19:13.920Z,6.90
2022-12-14T12:21:43.046Z,4.13
2022-12-14T12:24:22.870Z,6.75
2022-12-14T12:26:58.717Z,5.28
2022-12-14T12:29:34.550Z,5.22
2022-12-14T12:32:11.531Z,5.95
2022-12-14T12:34:51.755Z,5.75
2022-12-14T12:37:29.765Z,4.18
2022-12-14T12:40:02.643Z,5.60
2022-12-14T12:42:51.233Z,5.03
2022-12-14T12:46:22.722Z,4.95
2022-12-14T12:53:46.843Z,11.68
2022-12-14T12:56:27.688Z,9.57
2022-12-14T12:59:24.371Z,7.15
2022-12-14T13:02:01.161Z,11.63
2022-12-14T13:04:32.796Z,6.93
2022-12-14T13:07:06.029Z,5.30
2022-12-14T13:12:12.155Z,5.85
2022-12-14T13:14:43.733Z,4.80
2022-12-14T13:17:34.786Z,6.97
2022-12-14T13:20:06.839Z,6.57
2022-12-14T13:22:42.709Z,7.03
2022-12-14T13:25:33.969Z,7.03
2022-12-14T13:28:23.330Z,6.20
2022-12-14T13:31:05.220Z,6.72
2022-12-14T13:33:54.442Z,7.80
2022-12-14T13:36:30.231Z,8.52
2022-12-14T13:39:41.224Z,7.13
2022-12-14T13:42:31.934Z,7.97
2022-12-14T13:45:04.598Z,8.90
2022-12-14T13:47:44.895Z,5.63
2022-12-14T13:50:39.827Z,6.93
2022-12-14T13:53:12.066Z,7.00
2022-12-14T13:55:53.208Z,10.00
2022-12-14T13:58:29.557Z,5.50
2022-12-14T14:00:59.860Z,6.05
2022-12-14T14:03:35.939Z,6.43
2022-12-14T14:06:08.744Z,9.25
2022-12-14T14:08:41.752Z,6.95
2022-12-14T14:11:39.728Z,5.43
2022-12-14T14:14:36.140Z,5.10
2022-12-14T14:17:26.951Z,8.68
2022-12-14T14:19:56.016Z,7.68
2022-12-14T14:22:25.981Z,7.45
2022-12-14T14:24:56.392Z,4.65
2022-12-14T14:27:27.267Z,5.35
2022-12-14T14:29:54.594Z,7.03
2022-12-14T14:32:38.421Z,5.03
2022-12-14T14:35:22.533Z,7.40
2022-12-14T14:38:02.592Z,7.30
2022-12-14T14:41:15.502Z,5.95
2022-12-14T14:43:49.859Z,7.35
2022-12-14T14:46:22.444Z,4.85
2022-12-14T14:48:54.700Z,3.25
2022-12-14T14:51:28.956Z,7.05
2022-12-14T14:54:56.166Z,16.15
2022-12-14T14:57:52.483Z,4.93
2022-12-14T15:00:19.116Z,6.40
2022-12-14T15:02:46.437Z,6.18
2022-12-14T15:08:20.618Z,5.00
2022-12-14T15:10:48.263Z,5.00
2022-12-14T15:13:28.246Z,7.38
2022-12-14T15:15:58.071Z,5.22
2022-12-14T15:18:26.135Z,7.57
2022-12-14T15:21:21.703Z,5.18
2022-12-14T15:23:52.124Z,8.68
2022-12-14T15:26:20.659Z,6.13
2022-12-14T15:28:52.833Z,6.43
2022-12-14T15:31:29.323Z,5.82
2022-12-14T15:33:57.186Z,7.10
2022-12-14T15:36:32.158Z,5.13
2022-12-14T15:38:59.138Z,5.70
2022-12-14T15:41:32.981Z,5.55
2022-12-14T15:44:00.439Z,5.95
2022-12-14T15:46:30.194Z,5.10
2022-12-14T15:48:59.064Z,13.32
2022-12-14T15:51:33.066Z,13.20
2022-12-14T15:54:01.877Z,11.68
2022-12-14T15:56:33.488Z,11.60
2022-12-14T15:59:03.327Z,13.95
2022-12-14T16:01:34.858Z,8.15
2022-12-14T16:04:10.373Z,7.47
2022-12-14T16:06:41.560Z,4.20
2022-12-14T16:09:16.864Z,5.45
2022-12-14T16:11:49.765Z,8.00
2022-12-14T16:14:45.171Z,6.82
2022-12-14T16:17:13.587Z,4.38
2022-12-14T16:19:58.488Z,8.20
2022-12-14T16:22:31.130Z,4.78
2022-12-14T16:25:16.872Z,9.45
2022-12-14T16:27:49.952Z,10.65
2022-12-14T16:31:00.548Z,9.30
2022-12-14T16:33:29.383Z,4.53
2022-12-14T16:36:13.371Z,4.55
2022-12-14T16:39:20.735Z,7.50
2022-12-14T16:42:00.830Z,6.82
2022-12-14T16:44:30.640Z,7.50
2022-12-14T16:47:25.446Z,8.20
2022-12-14T16:50:00.116Z,11.90
2022-12-14T16:52:34.709Z,15.30
2022-12-14T16:55:13.318Z,12.68
2022-12-14T16:57:48.978Z,13.95
2022-12-14T17:00:31.438Z,16.85
2022-12-14T17:03:03.960Z,16.92
2022-12-14T17:05:41.130Z,12.77
2022-12-14T17:08:08.487Z,12.25
2022-12-14T17:10:35.190Z,19.55
2022-12-14T17:13:03.405Z,10.63
2022-12-14T17:15:34.139Z,12.38
2022-12-14T17:18:03.872Z,196.45
2022-12-14T17:20:39.307Z,298.55
2022-12-14T17:23:08.409Z,311.15
2022-12-14T17:25:35.728Z,36.50
2022-12-14T17:28:02.260Z,23.42
2022-12-14T17:30:28.823Z,33.78
2022-12-14T17:32:55.800Z,20.35
2022-12-14T17:35:29.764Z,20.98
2022-12-14T17:37:57.062Z,17.67
2022-12-14T17:40:24.119Z,30.27
2022-12-14T17:42:54.107Z,18.20
2022-12-14T17:45:23.781Z,25.30
2022-12-14T17:47:50.431Z,12.65
2022-12-14T17:50:18.713Z,21.98
2022-12-14T17:52:45.975Z,21.85
2022-12-14T17:55:24.700Z,16.20
2022-12-14T17:57:51.836Z,13.77
2022-12-14T18:00:39.091Z,15.43
2022-12-14T18:03:05.890Z,11.60
2022-12-14T18:05:33.649Z,9.48
2022-12-14T18:08:00.173Z,7.50
2022-12-14T18:10:26.773Z,11.43
2022-12-14T18:12:55.521Z,14.27
2022-12-14T18:15:33.366Z,10.50
2022-12-14T18:17:59.961Z,15.07
2022-12-14T18:20:26.524Z,19.30
2022-12-14T18:22:53.422Z,15.60
2022-12-14T18:25:36.454Z,15.05
2022-12-14T18:28:05.177Z,20.85
2022-12-14T18:30:39.495Z,25.45
2022-12-14T18:33:16.958Z,30.17
2022-12-14T18:35:45.057Z,20.48
2022-12-14T18:38:11.919Z,15.82
2022-12-14T18:40:39.428Z,13.68
2022-12-14T18:43:05.986Z,12.00
2022-12-14T18:45:34.863Z,6.90
2022-12-14T18:48:01.940Z,8.10
2022-12-14T18:50:29.006Z,8.75
2022-12-14T18:52:56.095Z,8.05
2022-12-14T18:55:26.189Z,9.45
2022-12-14T18:57:55.198Z,14.88
2022-12-14T19:00:26.897Z,12.13
2022-12-14T19:02:57.663Z,21.42
2022-12-14T19:05:26.237Z,16.40
2022-12-14T19:07:54.241Z,16.70
2022-12-14T19:10:23.742Z,12.25
2022-12-14T19:12:51.033Z,12.88
2022-12-14T19:15:24.360Z,14.35
2022-12-14T19:17:51.753Z,22.08
2022-12-14T19:20:19.447Z,19.27
2022-12-14T19:22:47.280Z,17.88
2022-12-14T19:25:15.255Z,10.73
2022-12-14T19:28:25.794Z,17.92
2022-12-14T19:30:28.563Z,21.38
2022-12-14T19:32:58.156Z,22.30
2022-12-14T19:35:24.744Z,29.95
2022-12-14T19:37:51.688Z,17.75
2022-12-14T19:40:19.487Z,10.95
2022-12-14T19:42:46.850Z,12.30
2022-12-14T19:45:14.234Z,9.70
2022-12-14T19:47:41.050Z,14.27
2022-12-14T19:50:08.184Z,10.70
2022-12-14T19:52:34.686Z,12.98
2022-12-14T19:55:02.124Z,13.25
2022-12-14T19:57:29.069Z,17.70
2022-12-14T19:59:57.136Z,9.93
2022-12-14T20:02:23.730Z,8.73
2022-12-14T20:04:50.315Z,11.48
2022-12-14T20:07:17.125Z,10.55
2022-12-14T20:09:43.691Z,13.95
2022-12-14T20:12:11.360Z,11.02
2022-12-14T20:14:42.676Z,16.95
2022-12-14T20:17:11.201Z,13.00
2022-12-14T20:19:39.183Z,10.35
2022-12-14T20:22:07.590Z,12.20
2022-12-14T20:24:34.740Z,19.13
2022-12-14T20:27:01.288Z,16.90
2022-12-14T20:29:27.760Z,19.48
2022-12-14T20:31:57.082Z,14.60
2022-12-14T20:34:23.806Z,16.15
2022-12-14T20:36:53.031Z,15.27
2022-12-14T20:39:19.591Z,9.73
2022-12-14T20:41:46.145Z,6.95
2022-12-14T20:44:13.748Z,13.35
2022-12-14T20:46:42.883Z,9.48
2022-12-14T20:49:15.718Z,10.52
2022-12-14T20:51:43.358Z,7.35
2022-12-14T20:54:16.381Z,8.18
2022-12-14T20:56:43.586Z,8.63
2022-12-14T20:59:11.118Z,5.35
2022-12-14T21:01:39.496Z,10.02
2022-12-14T21:04:06.656Z,10.95
2022-12-14T21:06:37.495Z,12.23
2022-12-14T21:09:11.733Z,8.80
2022-12-14T21:12:01.947Z,13.05
2022-12-14T21:14:32.476Z,13.20
2022-12-14T21:17:00.047Z,13.10
2022-12-14T21:19:27.184Z,12.07
2022-12-14T21:21:54.481Z,11.13
2022-12-14T21:25:00.378Z,12.65
2022-12-14T21:27:15.830Z,9.57
2022-12-14T21:29:42.427Z,11.30
2022-12-14T21:32:09.388Z,9.25
2022-12-14T21:34:39.937Z,16.23
2022-12-14T21:37:06.895Z,6.82
2022-12-14T21:39:33.700Z,13.43
2022-12-14T21:42:15.999Z,11.10
2022-12-14T21:44:45.026Z,9.25
2022-12-14T21:47:26.886Z,8.43
2022-12-14T21:49:54.162Z,5.60
2022-12-14T21:52:23.794Z,10.13
2022-12-14T21:54:50.362Z,5.93
2022-12-14T21:57:38.505Z,5.32
2022-12-14T22:00:08.029Z,9.40
2022-12-14T22:02:34.787Z,4.57
2022-12-14T22:05:01.491Z,6.63
2022-12-14T22:07:32.802Z,17.52
2022-12-14T22:09:59.540Z,10.80
2022-12-14T22:12:26.146Z,5.55
2022-12-14T22:14:52.737Z,7.50
2022-12-14T22:17:19.315Z,10.23
2022-12-14T22:19:45.821Z,4.45
2022-12-14T22:22:16.412Z,8.05
2022-12-14T22:24:43.623Z,4.40
2022-12-14T22:27:13.483Z,7.60
2022-12-14T22:29:40.186Z,6.88
2022-12-14T22:32:07.720Z,7.75
2022-12-14T22:34:34.581Z,9.93
2022-12-14T22:37:01.138Z,8.10
2022-12-14T22:39:27.669Z,8.15
2022-12-14T22:41:54.246Z,8.38
2022-12-14T22:44:20.740Z,5.28
2022-12-14T22:46:47.275Z,6.72
2022-12-14T22:49:17.337Z,6.65
2022-12-14T22:51:43.948Z,4.13
2022-12-14T22:54:26.007Z,8.68
2022-12-14T22:57:02.852Z,4.32
2022-12-14T22:59:41.791Z,7.05
2022-12-14T23:02:08.781Z,8.20
2022-12-14T23:04:37.315Z,7.05
2022-12-14T23:07:04.663Z,7.82
2022-12-14T23:09:49.638Z,7.78
2022-12-14T23:12:34.462Z,2.85
2022-12-14T23:15:19.372Z,5.45
2022-12-14T23:18:04.304Z,5.97
2022-12-14T23:20:49.567Z,3.25
2022-12-14T23:23:34.579Z,1.98
2022-12-14T23:26:23.457Z,5.60
2022-12-14T23:29:08.396Z,7.43
2022-12-14T23:31:53.454Z,2.15
2022-12-14T23:34:38.356Z,2.70
2022-12-14T23:37:23.563Z,3.67
2022-12-14T23:40:08.942Z,1.42
2022-12-14T23:42:53.837Z,2.97
2022-12-14T23:45:38.987Z,4.18
2022-12-14T23:48:24.678Z,1.58
2022-12-14T23:51:09.707Z,4.05
2022-12-14T23:53:54.634Z,1.75
2022-12-14T23:56:39.952Z,0.85
2022-12-14T23:59:31.611Z,3.00
